sensor_id;sensor_type;location;lat;lon;timestamp;temperature;humidity
23748;DHT22;12054;53.662;10.126;2022-07-17T00:01:57;15.80;91.70
23748;DHT22;12054;53.662;10.126;2022-07-17T00:04:22;15.80;91.70
23748;DHT22;12054;53.662;10.126;2022-07-17T00:06:48;15.70;91.70
23748;DHT22;12054;53.662;10.126;2022-07-17T00:09:14;15.70;91.80
23748;DHT22;12054;53.662;10.126;2022-07-17T00:11:39;15.70;91.90
23748;DHT22;12054;53.662;10.126;2022-07-17T00:14:05;15.70;92.00
23748;DHT22;12054;53.662;10.126;2022-07-17T00:16:31;15.60;92.00
23748;DHT22;12054;53.662;10.126;2022-07-17T00:18:56;15.60;92.00
23748;DHT22;12054;53.662;10.126;2022-07-17T00:21:22;15.60;92.10
23748;DHT22;12054;53.662;10.126;2022-07-17T00:23:47;15.60;92.10
23748;DHT22;12054;53.662;10.126;2022-07-17T00:26:13;15.50;92.10
23748;DHT22;12054;53.662;10.126;2022-07-17T00:28:38;15.50;92.20
23748;DHT22;12054;53.662;10.126;2022-07-17T00:31:04;15.50;92.20
23748;DHT22;12054;53.662;10.126;2022-07-17T00:33:30;15.40;92.20
23748;DHT22;12054;53.662;10.126;2022-07-17T00:35:55;15.40;92.20
23748;DHT22;12054;53.662;10.126;2022-07-17T00:38:21;15.30;92.20
23748;DHT22;12054;53.662;10.126;2022-07-17T00:40:46;15.30;92.20
23748;DHT22;12054;53.662;10.126;2022-07-17T00:43:12;15.30;92.20
23748;DHT22;12054;53.662;10.126;2022-07-17T00:45:37;15.20;92.20
23748;DHT22;12054;53.662;10.126;2022-07-17T00:48:05;15.20;92.30
23748;DHT22;12054;53.662;10.126;2022-07-17T00:50:36;15.20;92.30
23748;DHT22;12054;53.662;10.126;2022-07-17T00:53:03;15.10;92.40
23748;DHT22;12054;53.662;10.126;2022-07-17T00:55:29;15.10;92.40
23748;DHT22;12054;53.662;10.126;2022-07-17T00:57:55;15.00;92.50
23748;DHT22;12054;53.662;10.126;2022-07-17T01:00:22;15.00;92.50
23748;DHT22;12054;53.662;10.126;2022-07-17T01:02:52;15.00;92.60
23748;DHT22;12054;53.662;10.126;2022-07-17T01:05:19;15.00;92.60
23748;DHT22;12054;53.662;10.126;2022-07-17T01:07:45;15.00;92.60
23748;DHT22;12054;53.662;10.126;2022-07-17T01:10:12;14.90;92.70
23748;DHT22;12054;53.662;10.126;2022-07-17T01:12:38;14.90;92.70
23748;DHT22;12054;53.662;10.126;2022-07-17T01:15:06;14.90;92.80
23748;DHT22;12054;53.662;10.126;2022-07-17T01:17:31;14.80;92.80
23748;DHT22;12054;53.662;10.126;2022-07-17T01:19:57;14.80;92.80
23748;DHT22;12054;53.662;10.126;2022-07-17T01:22:23;14.70;92.80
23748;DHT22;12054;53.662;10.126;2022-07-17T01:24:48;14.70;93.20
23748;DHT22;12054;53.662;10.126;2022-07-17T01:27:15;14.70;92.80
23748;DHT22;12054;53.662;10.126;2022-07-17T01:29:41;14.70;92.90
23748;DHT22;12054;53.662;10.126;2022-07-17T01:32:06;14.60;92.90
23748;DHT22;12054;53.662;10.126;2022-07-17T01:34:32;14.60;92.90
23748;DHT22;12054;53.662;10.126;2022-07-17T01:36:58;14.60;93.00
23748;DHT22;12054;53.662;10.126;2022-07-17T01:39:24;14.60;93.10
23748;DHT22;12054;53.662;10.126;2022-07-17T01:42:08;14.50;93.10
23748;DHT22;12054;53.662;10.126;2022-07-17T01:44:35;14.50;93.20
23748;DHT22;12054;53.662;10.126;2022-07-17T01:47:01;14.50;93.30
23748;DHT22;12054;53.662;10.126;2022-07-17T01:49:27;14.50;93.30
23748;DHT22;12054;53.662;10.126;2022-07-17T01:51:52;14.50;93.40
23748;DHT22;12054;53.662;10.126;2022-07-17T01:54:18;14.50;93.40
23748;DHT22;12054;53.662;10.126;2022-07-17T01:56:44;14.40;93.50
23748;DHT22;12054;53.662;10.126;2022-07-17T01:59:09;14.40;93.50
23748;DHT22;12054;53.662;10.126;2022-07-17T02:01:35;14.40;93.60
23748;DHT22;12054;53.662;10.126;2022-07-17T02:04:00;14.40;93.70
23748;DHT22;12054;53.662;10.126;2022-07-17T02:06:26;14.40;93.80
23748;DHT22;12054;53.662;10.126;2022-07-17T02:08:52;14.40;93.90
23748;DHT22;12054;53.662;10.126;2022-07-17T02:11:17;14.30;94.30
23748;DHT22;12054;53.662;10.126;2022-07-17T02:13:43;14.30;94.00
23748;DHT22;12054;53.662;10.126;2022-07-17T02:16:09;14.30;94.10
23748;DHT22;12054;53.662;10.126;2022-07-17T02:18:34;14.30;94.20
23748;DHT22;12054;53.662;10.126;2022-07-17T02:21:00;14.30;94.30
23748;DHT22;12054;53.662;10.126;2022-07-17T02:23:26;14.20;94.40
23748;DHT22;12054;53.662;10.126;2022-07-17T02:25:51;14.20;94.50
23748;DHT22;12054;53.662;10.126;2022-07-17T02:28:17;14.20;94.60
23748;DHT22;12054;53.662;10.126;2022-07-17T02:30:42;14.20;94.70
23748;DHT22;12054;53.662;10.126;2022-07-17T02:33:08;14.20;94.80
23748;DHT22;12054;53.662;10.126;2022-07-17T02:35:33;14.20;94.90
23748;DHT22;12054;53.662;10.126;2022-07-17T02:37:59;14.20;95.00
23748;DHT22;12054;53.662;10.126;2022-07-17T02:40:25;14.20;95.10
23748;DHT22;12054;53.662;10.126;2022-07-17T02:42:51;14.20;95.20
23748;DHT22;12054;53.662;10.126;2022-07-17T02:45:16;14.20;95.40
23748;DHT22;12054;53.662;10.126;2022-07-17T02:47:43;14.20;95.50
23748;DHT22;12054;53.662;10.126;2022-07-17T02:50:09;14.20;95.60
23748;DHT22;12054;53.662;10.126;2022-07-17T02:52:35;14.20;95.70
23748;DHT22;12054;53.662;10.126;2022-07-17T02:55:01;14.10;95.80
23748;DHT22;12054;53.662;10.126;2022-07-17T02:57:27;14.10;95.90
23748;DHT22;12054;53.662;10.126;2022-07-17T02:59:52;14.10;96.00
23748;DHT22;12054;53.662;10.126;2022-07-17T03:02:18;14.10;96.20
23748;DHT22;12054;53.662;10.126;2022-07-17T03:04:44;14.10;96.30
23748;DHT22;12054;53.662;10.126;2022-07-17T03:07:09;14.10;96.40
23748;DHT22;12054;53.662;10.126;2022-07-17T03:09:35;14.10;96.50
23748;DHT22;12054;53.662;10.126;2022-07-17T03:12:01;14.10;96.60
23748;DHT22;12054;53.662;10.126;2022-07-17T03:14:27;14.10;96.80
23748;DHT22;12054;53.662;10.126;2022-07-17T03:16:52;14.10;96.90
23748;DHT22;12054;53.662;10.126;2022-07-17T03:19:18;14.10;97.10
23748;DHT22;12054;53.662;10.126;2022-07-17T03:21:44;14.10;97.30
23748;DHT22;12054;53.662;10.126;2022-07-17T03:24:09;14.10;97.40
23748;DHT22;12054;53.662;10.126;2022-07-17T03:26:35;14.10;97.60
23748;DHT22;12054;53.662;10.126;2022-07-17T03:29:01;14.10;97.70
23748;DHT22;12054;53.662;10.126;2022-07-17T03:31:26;14.10;97.80
23748;DHT22;12054;53.662;10.126;2022-07-17T03:33:52;14.10;97.90
23748;DHT22;12054;53.662;10.126;2022-07-17T03:36:17;14.10;98.00
23748;DHT22;12054;53.662;10.126;2022-07-17T03:38:43;14.10;98.10
23748;DHT22;12054;53.662;10.126;2022-07-17T03:41:08;14.10;98.10
23748;DHT22;12054;53.662;10.126;2022-07-17T03:43:34;14.10;98.30
23748;DHT22;12054;53.662;10.126;2022-07-17T03:46:00;14.10;98.30
23748;DHT22;12054;53.662;10.126;2022-07-17T03:48:25;14.10;98.40
23748;DHT22;12054;53.662;10.126;2022-07-17T03:50:51;14.10;98.50
23748;DHT22;12054;53.662;10.126;2022-07-17T03:53:16;14.10;98.60
23748;DHT22;12054;53.662;10.126;2022-07-17T03:55:42;14.10;98.70
23748;DHT22;12054;53.662;10.126;2022-07-17T03:58:08;14.20;98.90
23748;DHT22;12054;53.662;10.126;2022-07-17T04:00:33;14.20;99.00
23748;DHT22;12054;53.662;10.126;2022-07-17T04:02:59;14.20;99.10
23748;DHT22;12054;53.662;10.126;2022-07-17T04:05:24;14.20;99.20
23748;DHT22;12054;53.662;10.126;2022-07-17T04:07:50;14.20;99.30
23748;DHT22;12054;53.662;10.126;2022-07-17T04:10:15;14.20;99.50
23748;DHT22;12054;53.662;10.126;2022-07-17T04:12:42;14.20;99.50
23748;DHT22;12054;53.662;10.126;2022-07-17T04:15:08;14.20;99.60
23748;DHT22;12054;53.662;10.126;2022-07-17T04:17:34;14.20;99.70
23748;DHT22;12054;53.662;10.126;2022-07-17T04:20:00;14.20;99.70
23748;DHT22;12054;53.662;10.126;2022-07-17T04:22:26;14.20;99.80
23748;DHT22;12054;53.662;10.126;2022-07-17T04:24:52;14.20;99.90
23748;DHT22;12054;53.662;10.126;2022-07-17T04:27:18;14.20;99.90
23748;DHT22;12054;53.662;10.126;2022-07-17T04:29:44;14.30;99.90
23748;DHT22;12054;53.662;10.126;2022-07-17T04:32:09;14.30;99.90
23748;DHT22;12054;53.662;10.126;2022-07-17T04:34:35;14.30;99.90
23748;DHT22;12054;53.662;10.126;2022-07-17T04:37:02;14.40;99.90
23748;DHT22;12054;53.662;10.126;2022-07-17T04:39:28;14.30;99.90
23748;DHT22;12054;53.662;10.126;2022-07-17T04:41:54;14.40;99.90
23748;DHT22;12054;53.662;10.126;2022-07-17T04:44:20;14.30;99.90
23748;DHT22;12054;53.662;10.126;2022-07-17T04:46:46;14.40;99.90
23748;DHT22;12054;53.662;10.126;2022-07-17T04:49:11;14.30;99.90
23748;DHT22;12054;53.662;10.126;2022-07-17T04:51:37;14.30;99.90
23748;DHT22;12054;53.662;10.126;2022-07-17T04:54:03;14.40;99.90
23748;DHT22;12054;53.662;10.126;2022-07-17T04:56:28;14.40;99.90
23748;DHT22;12054;53.662;10.126;2022-07-17T04:58:54;14.40;99.90
23748;DHT22;12054;53.662;10.126;2022-07-17T05:01:20;14.40;99.90
23748;DHT22;12054;53.662;10.126;2022-07-17T05:03:45;14.40;99.90
23748;DHT22;12054;53.662;10.126;2022-07-17T05:06:11;14.40;99.90
23748;DHT22;12054;53.662;10.126;2022-07-17T05:08:36;14.50;99.90
23748;DHT22;12054;53.662;10.126;2022-07-17T05:11:02;14.50;99.90
23748;DHT22;12054;53.662;10.126;2022-07-17T05:13:28;14.50;99.90
23748;DHT22;12054;53.662;10.126;2022-07-17T05:15:53;14.60;99.90
23748;DHT22;12054;53.662;10.126;2022-07-17T05:18:19;14.60;99.90
23748;DHT22;12054;53.662;10.126;2022-07-17T05:20:44;14.60;99.90
23748;DHT22;12054;53.662;10.126;2022-07-17T05:23:10;14.60;99.90
23748;DHT22;12054;53.662;10.126;2022-07-17T05:25:35;14.60;99.90
23748;DHT22;12054;53.662;10.126;2022-07-17T05:28:01;14.60;99.90
23748;DHT22;12054;53.662;10.126;2022-07-17T05:30:28;14.70;99.90
23748;DHT22;12054;53.662;10.126;2022-07-17T05:32:53;14.70;99.90
23748;DHT22;12054;53.662;10.126;2022-07-17T05:35:19;14.70;99.90
23748;DHT22;12054;53.662;10.126;2022-07-17T05:37:45;14.70;99.90
23748;DHT22;12054;53.662;10.126;2022-07-17T05:40:11;14.80;99.90
23748;DHT22;12054;53.662;10.126;2022-07-17T05:42:36;14.80;99.90
23748;DHT22;12054;53.662;10.126;2022-07-17T05:45:03;14.80;99.90
23748;DHT22;12054;53.662;10.126;2022-07-17T05:47:28;14.90;99.90
23748;DHT22;12054;53.662;10.126;2022-07-17T05:49:54;14.90;99.90
23748;DHT22;12054;53.662;10.126;2022-07-17T05:52:19;14.90;99.90
23748;DHT22;12054;53.662;10.126;2022-07-17T05:54:45;15.00;99.90
23748;DHT22;12054;53.662;10.126;2022-07-17T05:57:10;15.00;99.90
23748;DHT22;12054;53.662;10.126;2022-07-17T05:59:36;15.10;99.90
23748;DHT22;12054;53.662;10.126;2022-07-17T06:02:02;15.10;99.90
23748;DHT22;12054;53.662;10.126;2022-07-17T06:04:27;15.10;99.90
23748;DHT22;12054;53.662;10.126;2022-07-17T06:06:53;15.20;99.90
23748;DHT22;12054;53.662;10.126;2022-07-17T06:09:18;15.20;99.90
23748;DHT22;12054;53.662;10.126;2022-07-17T06:11:44;15.20;99.90
23748;DHT22;12054;53.662;10.126;2022-07-17T06:14:09;15.20;99.90
23748;DHT22;12054;53.662;10.126;2022-07-17T06:16:35;15.20;99.90
23748;DHT22;12054;53.662;10.126;2022-07-17T06:19:00;15.30;99.90
23748;DHT22;12054;53.662;10.126;2022-07-17T06:21:27;15.30;99.90
23748;DHT22;12054;53.662;10.126;2022-07-17T06:23:52;15.30;99.90
23748;DHT22;12054;53.662;10.126;2022-07-17T06:26:18;15.40;99.90
23748;DHT22;12054;53.662;10.126;2022-07-17T06:28:43;15.50;99.90
23748;DHT22;12054;53.662;10.126;2022-07-17T06:31:09;15.50;99.90
23748;DHT22;12054;53.662;10.126;2022-07-17T06:33:35;15.60;99.90
23748;DHT22;12054;53.662;10.126;2022-07-17T06:36:02;15.60;99.90
23748;DHT22;12054;53.662;10.126;2022-07-17T06:38:28;15.70;99.90
23748;DHT22;12054;53.662;10.126;2022-07-17T06:40:53;15.70;99.90
23748;DHT22;12054;53.662;10.126;2022-07-17T06:43:19;15.80;99.90
23748;DHT22;12054;53.662;10.126;2022-07-17T06:45:45;15.80;99.90
23748;DHT22;12054;53.662;10.126;2022-07-17T06:48:11;15.90;99.90
23748;DHT22;12054;53.662;10.126;2022-07-17T06:50:36;15.90;99.90
23748;DHT22;12054;53.662;10.126;2022-07-17T06:53:02;16.00;99.90
23748;DHT22;12054;53.662;10.126;2022-07-17T06:55:27;16.10;99.90
23748;DHT22;12054;53.662;10.126;2022-07-17T06:57:53;16.10;99.90
23748;DHT22;12054;53.662;10.126;2022-07-17T07:00:18;16.20;99.90
23748;DHT22;12054;53.662;10.126;2022-07-17T07:02:44;16.20;99.90
23748;DHT22;12054;53.662;10.126;2022-07-17T07:05:10;16.30;99.90
23748;DHT22;12054;53.662;10.126;2022-07-17T07:07:36;16.30;99.90
23748;DHT22;12054;53.662;10.126;2022-07-17T07:10:03;16.30;99.90
23748;DHT22;12054;53.662;10.126;2022-07-17T07:12:28;16.40;99.90
23748;DHT22;12054;53.662;10.126;2022-07-17T07:14:54;16.50;99.90
23748;DHT22;12054;53.662;10.126;2022-07-17T07:17:20;16.50;99.80
23748;DHT22;12054;53.662;10.126;2022-07-17T07:19:46;16.70;99.80
23748;DHT22;12054;53.662;10.126;2022-07-17T07:22:11;16.80;99.80
23748;DHT22;12054;53.662;10.126;2022-07-17T07:24:37;16.90;99.40
23748;DHT22;12054;53.662;10.126;2022-07-17T07:27:03;17.10;99.10
23748;DHT22;12054;53.662;10.126;2022-07-17T07:29:28;17.20;98.90
23748;DHT22;12054;53.662;10.126;2022-07-17T07:31:54;17.40;98.60
23748;DHT22;12054;53.662;10.126;2022-07-17T07:34:20;17.60;98.50
23748;DHT22;12054;53.662;10.126;2022-07-17T07:36:45;17.80;98.40
23748;DHT22;12054;53.662;10.126;2022-07-17T07:39:11;18.00;98.20
23748;DHT22;12054;53.662;10.126;2022-07-17T07:41:36;18.10;97.90
23748;DHT22;12054;53.662;10.126;2022-07-17T07:44:02;18.30;97.80
23748;DHT22;12054;53.662;10.126;2022-07-17T07:46:27;18.50;97.70
23748;DHT22;12054;53.662;10.126;2022-07-17T07:48:53;18.60;97.40
23748;DHT22;12054;53.662;10.126;2022-07-17T07:51:18;18.80;97.10
23748;DHT22;12054;53.662;10.126;2022-07-17T07:53:44;18.90;96.90
23748;DHT22;12054;53.662;10.126;2022-07-17T07:56:09;19.00;96.60
23748;DHT22;12054;53.662;10.126;2022-07-17T07:58:35;19.10;96.50
23748;DHT22;12054;53.662;10.126;2022-07-17T08:01:01;19.10;96.40
23748;DHT22;12054;53.662;10.126;2022-07-17T08:03:26;19.20;95.90
23748;DHT22;12054;53.662;10.126;2022-07-17T08:05:52;19.40;95.50
23748;DHT22;12054;53.662;10.126;2022-07-17T08:08:17;19.50;95.30
23748;DHT22;12054;53.662;10.126;2022-07-17T08:10:43;19.60;95.40
23748;DHT22;12054;53.662;10.126;2022-07-17T08:13:08;19.60;95.20
23748;DHT22;12054;53.662;10.126;2022-07-17T08:15:35;19.70;95.10
23748;DHT22;12054;53.662;10.126;2022-07-17T08:18:00;19.80;95.10
23748;DHT22;12054;53.662;10.126;2022-07-17T08:20:26;19.80;94.90
23748;DHT22;12054;53.662;10.126;2022-07-17T08:22:52;19.80;94.80
23748;DHT22;12054;53.662;10.126;2022-07-17T08:25:18;19.80;94.60
23748;DHT22;12054;53.662;10.126;2022-07-17T08:27:44;19.90;94.60
23748;DHT22;12054;53.662;10.126;2022-07-17T08:30:11;19.90;94.40
23748;DHT22;12054;53.662;10.126;2022-07-17T08:32:39;20.00;94.20
23748;DHT22;12054;53.662;10.126;2022-07-17T08:35:05;20.10;93.90
23748;DHT22;12054;53.662;10.126;2022-07-17T08:37:41;20.10;93.50
23748;DHT22;12054;53.662;10.126;2022-07-17T08:40:08;20.20;93.30
23748;DHT22;12054;53.662;10.126;2022-07-17T08:42:34;20.20;93.30
23748;DHT22;12054;53.662;10.126;2022-07-17T08:45:09;20.30;93.20
23748;DHT22;12054;53.662;10.126;2022-07-17T08:47:35;20.40;92.90
23748;DHT22;12054;53.662;10.126;2022-07-17T08:50:02;20.60;92.80
23748;DHT22;12054;53.662;10.126;2022-07-17T08:52:28;20.80;92.70
23748;DHT22;12054;53.662;10.126;2022-07-17T08:54:54;20.90;92.90
23748;DHT22;12054;53.662;10.126;2022-07-17T08:57:20;21.10;92.80
23748;DHT22;12054;53.662;10.126;2022-07-17T08:59:47;21.20;92.20
23748;DHT22;12054;53.662;10.126;2022-07-17T09:02:13;21.30;91.90
23748;DHT22;12054;53.662;10.126;2022-07-17T09:04:39;21.50;91.50
23748;DHT22;12054;53.662;10.126;2022-07-17T09:07:05;21.70;91.10
23748;DHT22;12054;53.662;10.126;2022-07-17T09:09:31;21.70;90.80
23748;DHT22;12054;53.662;10.126;2022-07-17T09:11:59;21.70;90.60
23748;DHT22;12054;53.662;10.126;2022-07-17T09:14:37;21.80;90.40
23748;DHT22;12054;53.662;10.126;2022-07-17T09:17:04;21.70;89.30
23748;DHT22;12054;53.662;10.126;2022-07-17T09:19:36;21.80;89.30
23748;DHT22;12054;53.662;10.126;2022-07-17T09:22:17;21.90;89.20
23748;DHT22;12054;53.662;10.126;2022-07-17T09:24:54;22.00;88.10
23748;DHT22;12054;53.662;10.126;2022-07-17T09:30:10;22.20;87.30
23748;DHT22;12054;53.662;10.126;2022-07-17T09:32:39;22.30;86.50
23748;DHT22;12054;53.662;10.126;2022-07-17T09:35:07;22.40;86.50
23748;DHT22;12054;53.662;10.126;2022-07-17T09:37:34;22.50;86.00
23748;DHT22;12054;53.662;10.126;2022-07-17T09:40:00;22.60;85.40
23748;DHT22;12054;53.662;10.126;2022-07-17T09:42:29;22.70;84.70
23748;DHT22;12054;53.662;10.126;2022-07-17T09:45:02;22.80;84.40
23748;DHT22;12054;53.662;10.126;2022-07-17T09:47:30;22.90;84.40
23748;DHT22;12054;53.662;10.126;2022-07-17T09:49:57;22.90;84.20
23748;DHT22;12054;53.662;10.126;2022-07-17T09:52:25;23.00;83.90
23748;DHT22;12054;53.662;10.126;2022-07-17T09:54:53;23.10;83.90
23748;DHT22;12054;53.662;10.126;2022-07-17T09:57:21;23.20;83.60
23748;DHT22;12054;53.662;10.126;2022-07-17T09:59:49;23.20;82.70
23748;DHT22;12054;53.662;10.126;2022-07-17T10:02:17;23.30;82.20
23748;DHT22;12054;53.662;10.126;2022-07-17T10:04:46;23.40;81.60
23748;DHT22;12054;53.662;10.126;2022-07-17T10:07:12;23.40;81.20
23748;DHT22;12054;53.662;10.126;2022-07-17T10:09:39;23.50;81.60
23748;DHT22;12054;53.662;10.126;2022-07-17T10:12:08;23.60;81.20
23748;DHT22;12054;53.662;10.126;2022-07-17T10:14:35;23.60;80.20
23748;DHT22;12054;53.662;10.126;2022-07-17T10:17:12;23.70;79.90
23748;DHT22;12054;53.662;10.126;2022-07-17T10:19:55;23.80;78.80
23748;DHT22;12054;53.662;10.126;2022-07-17T10:22:22;23.90;77.50
23748;DHT22;12054;53.662;10.126;2022-07-17T10:24:53;24.00;77.70
23748;DHT22;12054;53.662;10.126;2022-07-17T10:27:29;24.00;78.00
23748;DHT22;12054;53.662;10.126;2022-07-17T10:30:03;24.10;77.60
23748;DHT22;12054;53.662;10.126;2022-07-17T10:32:30;24.10;78.40
23748;DHT22;12054;53.662;10.126;2022-07-17T10:35:03;24.20;77.20
23748;DHT22;12054;53.662;10.126;2022-07-17T10:40:25;24.30;76.70
23748;DHT22;12054;53.662;10.126;2022-07-17T10:42:59;24.40;76.10
23748;DHT22;12054;53.662;10.126;2022-07-17T10:45:30;24.50;76.00
23748;DHT22;12054;53.662;10.126;2022-07-17T10:48:10;24.50;75.70
23748;DHT22;12054;53.662;10.126;2022-07-17T10:50:38;24.50;74.60
23748;DHT22;12054;53.662;10.126;2022-07-17T10:53:14;24.60;74.40
23748;DHT22;12054;53.662;10.126;2022-07-17T10:55:44;24.70;73.90
23748;DHT22;12054;53.662;10.126;2022-07-17T10:58:25;24.70;73.40
23748;DHT22;12054;53.662;10.126;2022-07-17T11:01:15;24.80;73.40
23748;DHT22;12054;53.662;10.126;2022-07-17T11:03:43;24.90;73.90
23748;DHT22;12054;53.662;10.126;2022-07-17T11:11:15;25.10;71.80
23748;DHT22;12054;53.662;10.126;2022-07-17T11:13:41;25.10;71.80
23748;DHT22;12054;53.662;10.126;2022-07-17T11:16:07;25.20;71.90
23748;DHT22;12054;53.662;10.126;2022-07-17T11:18:34;25.20;71.40
23748;DHT22;12054;53.662;10.126;2022-07-17T11:21:02;25.30;70.70
23748;DHT22;12054;53.662;10.126;2022-07-17T11:23:30;25.20;70.90
23748;DHT22;12054;53.662;10.126;2022-07-17T11:28:40;25.30;71.40
23748;DHT22;12054;53.662;10.126;2022-07-17T11:31:23;25.40;70.30
23748;DHT22;12054;53.662;10.126;2022-07-17T11:34:00;25.40;69.70
23748;DHT22;12054;53.662;10.126;2022-07-17T11:36:35;25.40;69.60
23748;DHT22;12054;53.662;10.126;2022-07-17T11:39:07;25.40;69.30
23748;DHT22;12054;53.662;10.126;2022-07-17T11:41:40;25.40;69.50
23748;DHT22;12054;53.662;10.126;2022-07-17T11:44:09;25.40;70.00
23748;DHT22;12054;53.662;10.126;2022-07-17T11:46:37;25.50;70.10
23748;DHT22;12054;53.662;10.126;2022-07-17T11:49:03;25.50;69.50
23748;DHT22;12054;53.662;10.126;2022-07-17T11:51:42;25.70;69.80
23748;DHT22;12054;53.662;10.126;2022-07-17T11:54:13;25.80;69.50
23748;DHT22;12054;53.662;10.126;2022-07-17T11:56:41;25.80;69.00
23748;DHT22;12054;53.662;10.126;2022-07-17T11:59:08;25.90;68.40
23748;DHT22;12054;53.662;10.126;2022-07-17T12:01:42;25.90;68.20
23748;DHT22;12054;53.662;10.126;2022-07-17T12:04:13;26.00;67.80
23748;DHT22;12054;53.662;10.126;2022-07-17T12:06:39;26.00;67.50
23748;DHT22;12054;53.662;10.126;2022-07-17T12:09:05;26.00;67.80
23748;DHT22;12054;53.662;10.126;2022-07-17T12:11:31;26.20;68.10
23748;DHT22;12054;53.662;10.126;2022-07-17T12:14:06;26.20;67.30
23748;DHT22;12054;53.662;10.126;2022-07-17T12:16:35;26.20;66.60
23748;DHT22;12054;53.662;10.126;2022-07-17T12:19:14;26.20;67.00
23748;DHT22;12054;53.662;10.126;2022-07-17T12:22:00;26.30;67.50
23748;DHT22;12054;53.662;10.126;2022-07-17T12:24:31;26.40;67.20
23748;DHT22;12054;53.662;10.126;2022-07-17T12:27:02;26.40;66.20
23748;DHT22;12054;53.662;10.126;2022-07-17T12:29:28;26.40;66.30
23748;DHT22;12054;53.662;10.126;2022-07-17T12:32:08;26.40;65.90
23748;DHT22;12054;53.662;10.126;2022-07-17T12:34:38;26.40;64.90
23748;DHT22;12054;53.662;10.126;2022-07-17T12:37:17;26.40;64.60
23748;DHT22;12054;53.662;10.126;2022-07-17T12:39:43;26.40;64.60
23748;DHT22;12054;53.662;10.126;2022-07-17T12:42:09;26.40;64.40
23748;DHT22;12054;53.662;10.126;2022-07-17T12:44:35;26.40;64.60
23748;DHT22;12054;53.662;10.126;2022-07-17T12:47:01;26.40;65.00
23748;DHT22;12054;53.662;10.126;2022-07-17T12:49:27;26.40;65.30
23748;DHT22;12054;53.662;10.126;2022-07-17T12:51:53;26.40;65.20
23748;DHT22;12054;53.662;10.126;2022-07-17T12:54:19;26.50;65.00
23748;DHT22;12054;53.662;10.126;2022-07-17T12:56:44;26.50;64.90
23748;DHT22;12054;53.662;10.126;2022-07-17T12:59:10;26.50;64.70
23748;DHT22;12054;53.662;10.126;2022-07-17T13:01:35;26.60;65.00
23748;DHT22;12054;53.662;10.126;2022-07-17T13:04:01;26.70;65.00
23748;DHT22;12054;53.662;10.126;2022-07-17T13:06:27;26.80;64.80
23748;DHT22;12054;53.662;10.126;2022-07-17T13:08:53;26.80;64.50
23748;DHT22;12054;53.662;10.126;2022-07-17T13:11:19;26.90;64.20
23748;DHT22;12054;53.662;10.126;2022-07-17T13:13:44;26.80;64.00
23748;DHT22;12054;53.662;10.126;2022-07-17T13:16:10;26.90;64.10
23748;DHT22;12054;53.662;10.126;2022-07-17T13:18:37;26.90;63.50
23748;DHT22;12054;53.662;10.126;2022-07-17T13:21:03;26.90;63.40
23748;DHT22;12054;53.662;10.126;2022-07-17T13:23:28;26.90;63.60
23748;DHT22;12054;53.662;10.126;2022-07-17T13:25:54;26.90;64.00
23748;DHT22;12054;53.662;10.126;2022-07-17T13:28:19;27.00;63.50
23748;DHT22;12054;53.662;10.126;2022-07-17T13:30:46;27.00;63.20
23748;DHT22;12054;53.662;10.126;2022-07-17T13:33:12;27.10;63.20
23748;DHT22;12054;53.662;10.126;2022-07-17T13:35:37;27.10;63.30
23748;DHT22;12054;53.662;10.126;2022-07-17T13:38:03;27.10;63.30
23748;DHT22;12054;53.662;10.126;2022-07-17T13:40:30;27.20;63.10
23748;DHT22;12054;53.662;10.126;2022-07-17T13:42:56;27.20;63.10
23748;DHT22;12054;53.662;10.126;2022-07-17T13:45:22;27.20;63.20
23748;DHT22;12054;53.662;10.126;2022-07-17T13:47:48;27.20;62.80
23748;DHT22;12054;53.662;10.126;2022-07-17T13:50:14;27.30;62.70
23748;DHT22;12054;53.662;10.126;2022-07-17T13:52:39;27.30;62.70
23748;DHT22;12054;53.662;10.126;2022-07-17T13:55:06;27.30;62.60
23748;DHT22;12054;53.662;10.126;2022-07-17T13:57:32;27.30;62.30
23748;DHT22;12054;53.662;10.126;2022-07-17T13:59:57;27.40;62.20
23748;DHT22;12054;53.662;10.126;2022-07-17T14:02:23;27.30;61.50
23748;DHT22;12054;53.662;10.126;2022-07-17T14:04:49;27.20;61.90
23748;DHT22;12054;53.662;10.126;2022-07-17T14:07:15;27.30;62.50
23748;DHT22;12054;53.662;10.126;2022-07-17T14:09:41;27.20;62.60
23748;DHT22;12054;53.662;10.126;2022-07-17T14:12:06;27.30;62.50
23748;DHT22;12054;53.662;10.126;2022-07-17T14:14:32;27.30;62.50
23748;DHT22;12054;53.662;10.126;2022-07-17T14:16:58;27.30;62.50
23748;DHT22;12054;53.662;10.126;2022-07-17T14:19:23;27.30;62.50
23748;DHT22;12054;53.662;10.126;2022-07-17T14:21:49;27.30;62.20
23748;DHT22;12054;53.662;10.126;2022-07-17T14:24:15;27.20;62.10
23748;DHT22;12054;53.662;10.126;2022-07-17T14:26:41;27.20;61.80
23748;DHT22;12054;53.662;10.126;2022-07-17T14:29:11;27.10;61.70
23748;DHT22;12054;53.662;10.126;2022-07-17T14:31:37;27.10;61.90
23748;DHT22;12054;53.662;10.126;2022-07-17T14:34:03;27.10;62.30
23748;DHT22;12054;53.662;10.126;2022-07-17T14:36:28;27.00;62.50
23748;DHT22;12054;53.662;10.126;2022-07-17T14:38:54;27.00;62.60
23748;DHT22;12054;53.662;10.126;2022-07-17T14:41:19;27.00;62.80
23748;DHT22;12054;53.662;10.126;2022-07-17T14:43:46;27.00;62.70
23748;DHT22;12054;53.662;10.126;2022-07-17T14:46:12;26.90;62.30
23748;DHT22;12054;53.662;10.126;2022-07-17T14:48:37;26.90;62.20
23748;DHT22;12054;53.662;10.126;2022-07-17T14:51:04;26.90;62.20
23748;DHT22;12054;53.662;10.126;2022-07-17T14:53:30;26.80;62.50
23748;DHT22;12054;53.662;10.126;2022-07-17T14:55:56;26.80;62.80
23748;DHT22;12054;53.662;10.126;2022-07-17T14:58:23;26.80;62.80
23748;DHT22;12054;53.662;10.126;2022-07-17T15:00:49;26.70;62.70
23748;DHT22;12054;53.662;10.126;2022-07-17T15:03:14;26.70;62.80
23748;DHT22;12054;53.662;10.126;2022-07-17T15:05:40;26.60;62.60
23748;DHT22;12054;53.662;10.126;2022-07-17T15:08:05;26.60;63.00
23748;DHT22;12054;53.662;10.126;2022-07-17T15:10:34;26.50;63.20
23748;DHT22;12054;53.662;10.126;2022-07-17T15:13:00;26.50;63.10
23748;DHT22;12054;53.662;10.126;2022-07-17T15:15:26;26.50;63.10
23748;DHT22;12054;53.662;10.126;2022-07-17T15:17:51;26.40;63.10
23748;DHT22;12054;53.662;10.126;2022-07-17T15:20:20;26.40;63.20
23748;DHT22;12054;53.662;10.126;2022-07-17T15:22:45;26.40;63.00
23748;DHT22;12054;53.662;10.126;2022-07-17T15:25:13;26.30;62.70
23748;DHT22;12054;53.662;10.126;2022-07-17T15:27:42;26.30;62.40